Time;durP1;ratioP1;P1;durP2;ratioP2;P2;SDS_P1;SDS_P2;PMS_P1;PMS_P2;Temp;Humidity;BMP_temperature;BMP_pressure;BME280_temperature;BME280_humidity;BME280_pressure;Samples;Min_cycle;Max_cycle;Signal;HPM_P1;HPM_P2
2021/08/02 00:00:52;;;;;;;;;;;;;;;17.35;80.95;98923.56;4808303;29;19925;-71
2021/08/02 00:03:27;;;;;;;;;;;;;;;17.38;81.16;98913.13;4808067;29;19931;-71
2021/08/02 00:05:58;;;;;;;;;;;;;;;17.45;80.94;98911.13;4808249;29;19932;-71
2021/08/02 00:08:48;;;;;;;;;;;;;;;17.47;81.17;98906.75;4808141;29;20380;-71
2021/08/02 00:11:19;;;;;;;;;;;;;;;17.52;81.30;98916.91;4808070;29;19941;-71
2021/08/02 00:13:48;;;;;;;;;;;;;;;17.56;81.28;98915.91;4808067;29;19929;-71
2021/08/02 00:16:18;;;;;;;;;;;;;;;17.55;81.22;98917.63;4808302;29;19925;-71
2021/08/02 00:18:47;;;;;;;;;;;;;;;17.50;80.94;98927.25;4808051;29;19925;-71
2021/08/02 00:21:16;;;;;;;;;;;;;;;17.42;80.85;98917.25;4807924;29;20448;-71
2021/08/02 00:23:44;;;;;;;;;;;;;;;17.38;80.92;98928.59;4808207;29;19932;-71
2021/08/02 00:26:13;;;;;;;;;;;;;;;17.41;80.94;98915.59;4808461;29;19925;-71
2021/08/02 00:28:43;;;;;;;;;;;;;;;17.49;80.89;98922.19;4807989;29;20364;-71
2021/08/02 00:31:11;;;;;;;;;;;;;;;17.47;80.73;98929.97;4807679;29;19928;-71
2021/08/02 00:33:42;;;;;;;;;;;;;;;17.40;80.39;98931.13;4807778;29;19936;-71
2021/08/02 00:36:17;;;;;;;;;;;;;;;17.36;80.85;98927.84;4808332;29;19928;-71
2021/08/02 00:38:53;;;;;;;;;;;;;;;17.38;81.12;98930.34;4807880;29;19964;-71
2021/08/02 00:41:34;;;;;;;;;;;;;;;17.39;80.91;98932.03;4807648;29;19932;-71
2021/08/02 00:44:14;;;;;;;;;;;;;;;17.24;80.63;98933.47;4807577;29;19924;-71
2021/08/02 00:46:46;;;;;;;;;;;;;;;17.18;80.72;98927.72;4807563;29;19925;-71
2021/08/02 00:49:17;;;;;;;;;;;;;;;17.01;80.77;98930.94;4791370;29;20014;-71
2021/08/02 00:51:47;;;;;;;;;;;;;;;17.06;81.03;98939.34;4807395;29;20402;-71
2021/08/02 00:54:20;;;;;;;;;;;;;;;17.07;80.96;98956.50;4807477;29;19955;-71
2021/08/02 00:56:51;;;;;;;;;;;;;;;17.13;80.79;98965.75;4791258;29;19925;-71
2021/08/02 00:59:21;;;;;;;;;;;;;;;17.12;80.61;98970.06;4807559;29;19960;-71
2021/08/02 01:01:50;;;;;;;;;;;;;;;17.20;80.39;98960.28;4807253;29;19925;-71
2021/08/02 01:04:23;;;;;;;;;;;;;;;17.29;80.13;98967.66;4807166;29;20019;-71
2021/08/02 01:06:52;;;;;;;;;;;;;;;17.29;79.79;98965.09;4807384;29;19925;-71
2021/08/02 01:09:25;;;;;;;;;;;;;;;17.29;79.59;98962.50;4806655;29;20016;-70
2021/08/02 01:11:54;;;;;;;;;;;;;;;17.29;79.41;98962.50;4807429;29;20399;-71
2021/08/02 01:14:24;;;;;;;;;;;;;;;17.25;79.21;98966.09;4791016;29;19931;-71
2021/08/02 01:16:54;;;;;;;;;;;;;;;17.27;79.36;98969.47;4807083;29;20372;-71
2021/08/02 01:19:24;;;;;;;;;;;;;;;17.30;79.31;98959.00;4807048;29;20295;-71
2021/08/02 01:21:57;;;;;;;;;;;;;;;17.31;78.81;98976.19;4807385;29;20530;-71
2021/08/02 01:24:27;;;;;;;;;;;;;;;17.31;78.77;98976.19;4807324;29;20345;-71
2021/08/02 01:27:11;;;;;;;;;;;;;;;17.26;78.71;98977.25;4807628;29;19929;-71
2021/08/02 01:29:52;;;;;;;;;;;;;;;17.26;79.09;98974.66;4806935;29;19975;-71
2021/08/02 01:32:23;;;;;;;;;;;;;;;17.25;78.94;98971.25;4806945;29;19961;-71
2021/08/02 01:34:59;;;;;;;;;;;;;;;17.18;79.00;98959.50;4791102;29;19932;-71
2021/08/02 01:37:28;;;;;;;;;;;;;;;17.12;79.32;98970.06;4807482;29;19925;-71
2021/08/02 01:39:59;;;;;;;;;;;;;;;17.13;79.30;98976.88;4806875;29;19925;-71
2021/08/02 01:42:35;;;;;;;;;;;;;;;17.13;79.33;98981.22;4806798;29;20285;-71
2021/08/02 01:45:06;;;;;;;;;;;;;;;17.13;79.53;98986.38;4790716;29;20342;-71
2021/08/02 01:47:38;;;;;;;;;;;;;;;17.07;79.38;98990.03;4806837;29;19978;-71
2021/08/02 01:50:12;;;;;;;;;;;;;;;17.07;79.54;98986.59;4790578;29;20384;-71
2021/08/02 01:52:46;;;;;;;;;;;;;;;17.13;79.81;98981.22;4790943;29;19958;-71
2021/08/02 01:55:18;;;;;;;;;;;;;;;17.12;79.35;98989.84;4790737;29;20296;-71
2021/08/02 01:57:49;;;;;;;;;;;;;;;17.12;79.28;98985.53;4806720;29;20398;-71
2021/08/02 02:00:29;;;;;;;;;;;;;;;17.17;79.47;98986.19;4790637;29;19932;-71
2021/08/02 02:03:03;;;;;;;;;;;;;;;17.20;79.46;99004.13;4790558;29;19929;-71
2021/08/02 02:05:45;;;;;;;;;;;;;;;17.13;79.41;99005.25;4807032;29;19932;-71
2021/08/02 02:08:17;;;;;;;;;;;;;;;17.17;79.41;99003.41;4806701;29;20342;-71
2021/08/02 02:10:52;;;;;;;;;;;;;;;17.24;79.42;99005.69;4806623;29;19974;-71
2021/08/02 02:13:29;;;;;;;;;;;;;;;17.26;79.36;99009.06;4775514;29;20418;-71
2021/08/02 02:15:59;;;;;;;;;;;;;;;17.30;79.28;99005.44;4806626;29;20016;-71
2021/08/02 02:18:29;;;;;;;;;;;;;;;17.32;79.22;99003.63;4806611;29;20042;-71
2021/08/02 02:21:00;;;;;;;;;;;;;;;17.34;79.52;99001.88;4810058;29;19931;-71
2021/08/02 02:23:29;;;;;;;;;;;;;;;17.35;79.60;99006.09;4810270;29;20011;-70
2021/08/02 02:26:00;;;;;;;;;;;;;;;17.35;79.82;99016.44;4809923;29;19931;-70
2021/08/02 02:28:32;;;;;;;;;;;;;;;17.33;80.04;99015.66;4809948;29;19978;-71
2021/08/02 02:31:11;;;;;;;;;;;;;;;17.29;80.22;99018.41;4793617;29;19932;-71
2021/08/02 02:33:43;;;;;;;;;;;;;;;17.28;80.10;99017.56;4794148;29;19928;-71
2021/08/02 02:36:14;;;;;;;;;;;;;;;17.37;80.14;99019.78;4793688;29;19925;-71
2021/08/02 02:38:44;;;;;;;;;;;;;;;17.47;80.43;99027.19;4793546;29;20372;-71
2021/08/02 02:41:14;;;;;;;;;;;;;;;17.49;80.31;99015.91;4809910;29;19932;-71
2021/08/02 02:43:47;;;;;;;;;;;;;;;17.44;79.91;99020.41;4808504;29;19964;-71
2021/08/02 02:46:18;;;;;;;;;;;;;;;17.44;79.77;99039.28;4793555;29;20308;-71
2021/08/02 02:48:48;;;;;;;;;;;;;;;17.40;79.44;99052.38;4809590;29;20407;-71
2021/08/02 02:51:18;;;;;;;;;;;;;;;17.36;78.88;99046.50;4809800;29;20023;-71
2021/08/02 02:53:47;;;;;;;;;;;;;;;17.37;78.51;99048.16;4793207;29;19925;-71
2021/08/02 02:56:19;;;;;;;;;;;;;;;17.42;78.47;99051.41;4793330;29;20402;-71
2021/08/02 02:58:48;;;;;;;;;;;;;;;17.40;78.84;99063.53;4809441;29;19982;-70
2021/08/02 03:01:19;;;;;;;;;;;;;;;17.44;78.93;99070.25;4809345;29;19960;-70
2021/08/02 03:03:51;;;;;;;;;;;;;;;17.49;78.70;99066.66;4809023;29;20266;-70
2021/08/02 03:06:21;;;;;;;;;;;;;;;17.44;78.64;99069.44;4793152;29;19924;-70
2021/08/02 03:08:50;;;;;;;;;;;;;;;17.43;79.14;99073.75;4809518;29;19952;-70
2021/08/02 03:11:22;;;;;;;;;;;;;;;17.42;79.05;99073.78;4793309;29;19925;-70
2021/08/02 03:13:51;;;;;;;;;;;;;;;17.48;79.13;99075.28;4809011;29;19932;-70
2021/08/02 03:16:20;;;;;;;;;;;;;;;17.44;79.24;99075.41;4809156;29;19928;-70
2021/08/02 03:18:49;;;;;;;;;;;;;;;17.39;79.09;99069.59;4809362;29;19925;-70
2021/08/02 03:21:18;;;;;;;;;;;;;;;17.41;79.59;99079.84;4809009;29;19925;-70
2021/08/02 03:23:59;;;;;;;;;;;;;;;17.35;80.01;99075.75;4808864;29;20283;-70
2021/08/02 03:26:33;;;;;;;;;;;;;;;17.33;80.19;99087.88;4809279;29;19925;-70
2021/08/02 03:29:06;;;;;;;;;;;;;;;17.33;80.51;99087.88;4793056;29;19925;-70
2021/08/02 03:31:38;;;;;;;;;;;;;;;17.32;80.60;99088.75;4808203;29;19929;-70
2021/08/02 03:34:08;;;;;;;;;;;;;;;17.38;80.46;99091.13;4792579;29;20052;-70
2021/08/02 03:36:37;;;;;;;;;;;;;;;17.42;80.19;99094.41;4808667;29;19925;-70
2021/08/02 03:39:06;;;;;;;;;;;;;;;17.40;80.07;99094.50;4808726;29;19925;-70
2021/08/02 03:41:41;;;;;;;;;;;;;;;17.41;79.91;99105.66;4808967;29;19925;-70
2021/08/02 03:44:11;;;;;;;;;;;;;;;17.38;79.66;99106.63;4808621;29;19925;-70
2021/08/02 03:46:40;;;;;;;;;;;;;;;17.40;79.58;99120.28;4792420;29;20360;-70
2021/08/02 03:49:09;;;;;;;;;;;;;;;17.44;79.36;99131.34;4808868;29;19929;-70
2021/08/02 03:51:44;;;;;;;;;;;;;;;17.42;78.99;99131.38;4809051;29;20356;-70
2021/08/02 03:54:13;;;;;;;;;;;;;;;17.44;78.93;99145.06;4808533;29;19925;-70
2021/08/02 03:56:44;;;;;;;;;;;;;;;17.44;78.75;99147.66;4808379;29;20388;-70
2021/08/02 03:59:13;;;;;;;;;;;;;;;17.46;78.82;99154.50;4808394;29;19968;-70
2021/08/02 04:01:43;;;;;;;;;;;;;;;17.49;78.74;99163.00;4808282;29;19932;-70
2021/08/02 04:04:12;;;;;;;;;;;;;;;17.49;78.57;99167.31;4808255;29;19980;-70
2021/08/02 04:06:41;;;;;;;;;;;;;;;17.51;78.45;99173.25;4807033;29;19931;-70
2021/08/02 04:09:11;;;;;;;;;;;;;;;17.56;78.38;99176.53;4808189;29;19964;-70
2021/08/02 04:11:41;;;;;;;;;;;;;;;17.61;78.46;99177.19;4808212;29;20023;-70
2021/08/02 04:14:11;;;;;;;;;;;;;;;17.58;78.28;99182.47;4807965;29;19925;-70
2021/08/02 04:16:40;;;;;;;;;;;;;;;17.61;78.37;99185.75;4808443;29;19925;-70
2021/08/02 04:19:09;;;;;;;;;;;;;;;17.61;78.49;99182.38;4807986;29;19932;-70
2021/08/02 04:21:38;;;;;;;;;;;;;;;17.53;78.42;99181.78;4808549;29;20431;-70
2021/08/02 04:24:07;;;;;;;;;;;;;;;17.47;78.64;99193.13;4808141;29;20265;-70
2021/08/02 04:26:36;;;;;;;;;;;;;;;17.39;78.70;99198.59;4807854;29;19929;-70
2021/08/02 04:29:04;;;;;;;;;;;;;;;17.44;78.75;99204.41;4807798;29;19925;-70
2021/08/02 04:31:35;;;;;;;;;;;;;;;17.52;78.92;99203.31;4807849;29;19964;-70
2021/08/02 04:34:04;;;;;;;;;;;;;;;17.58;78.68;99205.69;4807675;29;19925;-70
2021/08/02 04:36:33;;;;;;;;;;;;;;;17.58;78.81;99210.84;4807636;29;20004;-70
2021/08/02 04:39:02;;;;;;;;;;;;;;;17.59;78.65;99212.56;4807663;29;19925;-70
2021/08/02 04:41:31;;;;;;;;;;;;;;;17.61;78.51;99213.34;4807501;29;19928;-70
2021/08/02 04:43:59;;;;;;;;;;;;;;;17.65;78.23;99217.47;4807536;29;20051;-70
2021/08/02 04:46:28;;;;;;;;;;;;;;;17.68;78.10;99214.78;4807479;29;19932;-70
2021/08/02 04:48:59;;;;;;;;;;;;;;;17.70;78.51;99215.56;4807438;29;19956;-70
2021/08/02 04:51:28;;;;;;;;;;;;;;;17.75;78.50;99214.50;4807491;29;20060;-70
2021/08/02 04:53:56;;;;;;;;;;;;;;;17.78;78.09;99210.97;4807384;29;20304;-70
2021/08/02 04:56:25;;;;;;;;;;;;;;;17.79;77.90;99217.81;4807353;29;20432;-70
2021/08/02 04:58:54;;;;;;;;;;;;;;;17.83;77.60;99211.63;4807276;29;19936;-70
2021/08/02 05:01:22;;;;;;;;;;;;;;;17.85;77.49;99215.00;4807289;29;19925;-69
2021/08/02 05:03:51;;;;;;;;;;;;;;;17.97;77.29;99206.81;4807045;29;19925;-70
2021/08/02 05:06:22;;;;;;;;;;;;;;;18.13;77.27;99204.44;4807324;29;20283;-69
2021/08/02 05:08:50;;;;;;;;;;;;;;;18.17;76.78;99212.03;4807579;29;19929;-70
2021/08/02 05:11:19;;;;;;;;;;;;;;;18.11;76.47;99209.69;4807126;29;20288;-70
2021/08/02 05:13:48;;;;;;;;;;;;;;;18.13;76.26;99210.47;4807499;29;19925;-70
2021/08/02 05:16:17;;;;;;;;;;;;;;;18.10;76.29;99195.06;4807098;29;19948;-70
2021/08/02 05:18:46;;;;;;;;;;;;;;;18.16;76.27;99200.03;4807022;29;20020;-70
2021/08/02 05:21:14;;;;;;;;;;;;;;;18.20;76.56;99199.00;4807023;29;19981;-70
2021/08/02 05:23:45;;;;;;;;;;;;;;;18.22;76.53;99204.94;4807559;29;19925;-70
2021/08/02 05:26:14;;;;;;;;;;;;;;;18.37;76.21;99199.16;4806914;29;20007;-70
2021/08/02 05:28:42;;;;;;;;;;;;;;;18.52;75.51;99198.56;4806923;29;20049;-70
2021/08/02 05:31:11;;;;;;;;;;;;;;;18.76;74.76;99206.25;4806924;29;19925;-70
2021/08/02 05:33:40;;;;;;;;;;;;;;;19.01;74.11;99201.69;4806870;29;19981;-70
2021/08/02 05:36:08;;;;;;;;;;;;;;;19.22;73.01;99205.94;4806815;29;20467;-70
2021/08/02 05:38:40;;;;;;;;;;;;;;;19.34;72.45;99202.84;4806890;29;20379;-71
2021/08/02 05:41:10;;;;;;;;;;;;;;;19.47;72.25;99204.00;4807100;29;19925;-71
2021/08/02 05:43:39;;;;;;;;;;;;;;;19.65;72.05;99199.78;4790650;29;19925;-71
2021/08/02 05:46:08;;;;;;;;;;;;;;;19.83;71.76;99210.13;4806739;29;19925;-71
2021/08/02 05:48:37;;;;;;;;;;;;;;;19.97;70.93;99218.09;4806749;29;19929;-71
2021/08/02 05:51:06;;;;;;;;;;;;;;;20.03;70.69;99217.81;4806750;29;20373;-70
2021/08/02 05:53:35;;;;;;;;;;;;;;;20.08;69.68;99209.84;4807178;29;19924;-70
2021/08/02 05:56:03;;;;;;;;;;;;;;;20.14;69.33;99230.28;4810556;29;19925;-70
2021/08/02 05:58:33;;;;;;;;;;;;;;;20.23;69.09;99219.50;4810345;29;19925;-71
2021/08/02 06:01:03;;;;;;;;;;;;;;;20.33;68.80;99225.94;4810421;29;19980;-69
2021/08/02 06:03:32;;;;;;;;;;;;;;;20.31;68.49;99226.91;4810051;29;19925;-71
2021/08/02 06:06:02;;;;;;;;;;;;;;;20.13;68.51;99223.41;4810224;29;19932;-71
2021/08/02 06:08:31;;;;;;;;;;;;;;;20.14;68.61;99219.06;4810229;29;19929;-71
2021/08/02 06:10:59;;;;;;;;;;;;;;;19.98;68.59;99219.81;4793946;29;19955;-72
2021/08/02 06:13:28;;;;;;;;;;;;;;;19.85;68.75;99218.66;4810110;29;20375;-71
2021/08/02 06:15:58;;;;;;;;;;;;;;;19.61;69.10;99230.13;4810331;29;20333;-71
2021/08/02 06:18:28;;;;;;;;;;;;;;;19.55;69.76;99234.75;4810096;29;19925;-71
2021/08/02 06:20:57;;;;;;;;;;;;;;;19.53;70.43;99237.38;4810248;29;20269;-72
2021/08/02 06:23:26;;;;;;;;;;;;;;;19.54;70.63;99238.22;4810752;29;20276;-72
2021/08/02 06:25:54;;;;;;;;;;;;;;;19.60;70.86;99244.00;4806908;29;19936;-71
2021/08/02 06:28:23;;;;;;;;;;;;;;;19.53;71.38;99247.75;4810141;29;19932;-71
2021/08/02 06:30:52;;;;;;;;;;;;;;;19.58;71.20;99252.75;4811015;29;20306;-71
2021/08/02 06:33:23;;;;;;;;;;;;;;;19.68;71.21;99272.97;4809745;29;20425;-71
2021/08/02 06:35:52;;;;;;;;;;;;;;;19.66;71.30;99259.25;4810182;29;20418;-71
2021/08/02 06:38:20;;;;;;;;;;;;;;;19.73;71.85;99268.44;4809694;29;19964;-71
2021/08/02 06:40:49;;;;;;;;;;;;;;;19.79;71.11;99268.16;4809590;29;19925;-71
2021/08/02 06:43:18;;;;;;;;;;;;;;;19.95;71.26;99270.91;4809599;29;19931;-71
2021/08/02 06:45:47;;;;;;;;;;;;;;;20.21;71.11;99267.94;4809546;29;19929;-71
2021/08/02 06:48:16;;;;;;;;;;;;;;;20.55;70.77;99272.44;4816743;29;19929;-71
2021/08/02 06:50:47;;;;;;;;;;;;;;;20.69;70.14;99265.66;4818194;29;19983;-72
2021/08/02 06:53:18;;;;;;;;;;;;;;;20.82;69.22;99259.88;4809076;29;19929;-71
2021/08/02 06:55:47;;;;;;;;;;;;;;;20.87;68.27;99258.75;4809312;29;19925;-71
2021/08/02 06:58:17;;;;;;;;;;;;;;;20.90;67.92;99266.34;4809269;29;19929;-71
2021/08/02 07:00:46;;;;;;;;;;;;;;;20.99;67.85;99265.94;4809597;29;19925;-71
2021/08/02 07:03:15;;;;;;;;;;;;;;;21.26;67.84;99261.97;4809116;29;19929;-71
2021/08/02 07:05:44;;;;;;;;;;;;;;;21.37;67.22;99258.81;4809302;29;19982;-71
2021/08/02 07:08:14;;;;;;;;;;;;;;;21.49;67.49;99262.53;4809146;29;19925;-72
2021/08/02 07:10:43;;;;;;;;;;;;;;;21.59;67.26;99261.16;4809122;29;19948;-72
2021/08/02 07:13:12;;;;;;;;;;;;;;;21.69;66.85;99268.38;4809112;29;20348;-71
2021/08/02 07:15:41;;;;;;;;;;;;;;;21.73;66.86;99277.69;4809080;29;19925;-72
2021/08/02 07:18:09;;;;;;;;;;;;;;;21.91;66.42;99273.31;4809571;29;19975;-72
2021/08/02 07:20:39;;;;;;;;;;;;;;;22.05;64.96;99268.22;4807841;29;19972;-72
2021/08/02 07:23:08;;;;;;;;;;;;;;;22.02;64.67;99279.63;4807066;29;19935;-71
2021/08/02 07:25:38;;;;;;;;;;;;;;;22.03;65.16;99280.44;4807141;29;19964;-71
2021/08/02 07:28:07;;;;;;;;;;;;;;;22.00;64.38;99280.63;4808699;29;19974;-71
2021/08/02 07:30:35;;;;;;;;;;;;;;;22.07;64.12;99276.78;4808707;29;19978;-72
2021/08/02 07:33:04;;;;;;;;;;;;;;;22.17;63.99;99277.94;4808722;29;19925;-71
2021/08/02 07:35:33;;;;;;;;;;;;;;;22.36;64.35;99278.59;4808433;29;20019;-71
2021/08/02 07:38:01;;;;;;;;;;;;;;;22.46;64.47;99286.75;4808639;29;19924;-72
2021/08/02 07:40:30;;;;;;;;;;;;;;;22.57;63.47;99287.84;4807135;29;19925;-71
2021/08/02 07:43:00;;;;;;;;;;;;;;;22.59;63.88;99293.81;4808427;29;20404;-71
2021/08/02 07:45:29;;;;;;;;;;;;;;;22.78;63.35;99295.38;4808554;29;20020;-71
2021/08/02 07:47:57;;;;;;;;;;;;;;;22.97;62.30;99290.81;4808310;29;20334;-71
2021/08/02 07:50:26;;;;;;;;;;;;;;;22.99;62.28;99291.56;4808424;29;19925;-71
2021/08/02 07:52:55;;;;;;;;;;;;;;;22.85;62.10;99281.94;4808427;29;19929;-71
2021/08/02 07:55:24;;;;;;;;;;;;;;;22.93;61.96;99284.97;4808575;29;19932;-71
2021/08/02 07:57:57;;;;;;;;;;;;;;;23.23;61.33;99291.00;4808399;29;20441;-71
2021/08/02 08:00:27;;;;;;;;;;;;;;;23.38;60.72;99278.84;4808148;29;19931;-71
2021/08/02 08:02:55;;;;;;;;;;;;;;;23.57;59.65;99282.03;4808485;29;19991;-71
2021/08/02 08:05:25;;;;;;;;;;;;;;;23.58;59.03;99283.72;4808437;29;19925;-71
2021/08/02 08:07:53;;;;;;;;;;;;;;;23.69;59.24;99286.53;4808079;29;20023;-71
2021/08/02 08:10:24;;;;;;;;;;;;;;;23.67;59.06;99293.59;4808033;29;19932;-71
2021/08/02 08:12:53;;;;;;;;;;;;;;;23.13;59.45;99296.84;4808012;29;19925;-71
2021/08/02 08:15:22;;;;;;;;;;;;;;;22.77;59.55;99286.75;4808189;29;19929;-70
2021/08/02 08:17:53;;;;;;;;;;;;;;;22.59;60.08;99296.41;4807562;29;19937;-71
2021/08/02 08:20:25;;;;;;;;;;;;;;;22.57;60.51;99294.81;4807953;29;20388;-71
2021/08/02 08:22:54;;;;;;;;;;;;;;;22.68;60.32;99301.13;4807891;29;19925;-70
2021/08/02 08:25:22;;;;;;;;;;;;;;;22.93;60.31;99291.94;4807930;29;19956;-71
2021/08/02 08:27:51;;;;;;;;;;;;;;;22.97;59.81;99294.25;4807810;29;19925;-71
2021/08/02 08:30:21;;;;;;;;;;;;;;;23.13;59.22;99291.63;4791505;29;19928;-71
2021/08/02 08:32:49;;;;;;;;;;;;;;;23.39;57.64;99297.94;4807614;29;19936;-71
2021/08/02 08:35:20;;;;;;;;;;;;;;;23.63;58.19;99302.53;4807528;29;19977;-71
2021/08/02 08:37:49;;;;;;;;;;;;;;;23.87;57.07;99301.03;4807614;29;19978;-72
2021/08/02 08:40:18;;;;;;;;;;;;;;;24.04;56.18;99307.00;4807553;29;20364;-71
2021/08/02 08:42:49;;;;;;;;;;;;;;;24.15;55.56;99299.38;4791311;29;19925;-71
2021/08/02 08:45:19;;;;;;;;;;;;;;;24.27;54.72;99303.81;4807504;29;19929;-71
2021/08/02 08:47:51;;;;;;;;;;;;;;;24.45;55.27;99302.69;4807431;29;19925;-72
2021/08/02 08:50:21;;;;;;;;;;;;;;;24.30;55.87;99308.88;4807614;29;20304;-71
2021/08/02 08:52:50;;;;;;;;;;;;;;;24.21;56.08;99304.22;4807502;29;19960;-71
2021/08/02 08:55:19;;;;;;;;;;;;;;;23.93;55.77;99305.88;4807305;29;19927;-71
2021/08/02 08:57:48;;;;;;;;;;;;;;;23.83;56.46;99315.19;4807181;29;19932;-70
2021/08/02 09:00:20;;;;;;;;;;;;;;;24.06;56.29;99305.13;4807214;29;19932;-70
2021/08/02 09:02:49;;;;;;;;;;;;;;;24.32;56.73;99312.22;4806999;29;20415;-71
2021/08/02 09:05:18;;;;;;;;;;;;;;;24.47;56.71;99313.88;4807238;29;19952;-71
2021/08/02 09:07:49;;;;;;;;;;;;;;;24.65;56.71;99315.28;4807086;29;19971;-72
2021/08/02 09:10:21;;;;;;;;;;;;;;;24.00;55.95;99301.97;4807444;29;19960;-70
2021/08/02 09:12:51;;;;;;;;;;;;;;;23.70;56.46;99303.84;4806998;29;19929;-71
2021/08/02 09:15:30;;;;;;;;;;;;;;;23.69;56.58;99311.75;4806997;29;19935;-71
2021/08/02 09:18:01;;;;;;;;;;;;;;;24.10;57.14;99306.66;4807233;29;19928;-71
2021/08/02 09:20:29;;;;;;;;;;;;;;;24.45;56.53;99302.69;4804998;29;19982;-71
2021/08/02 09:23:07;;;;;;;;;;;;;;;24.72;56.06;99305.28;4803641;29;19950;-71
2021/08/02 09:25:37;;;;;;;;;;;;;;;24.65;55.60;99304.84;4806859;29;19932;-71
2021/08/02 09:28:12;;;;;;;;;;;;;;;24.46;55.94;99301.72;4806371;29;19932;-73
2021/08/02 09:30:41;;;;;;;;;;;;;;;24.30;55.81;99314.09;4806532;29;19933;-71
2021/08/02 09:33:10;;;;;;;;;;;;;;;24.09;56.00;99310.19;4806799;29;20012;-70
2021/08/02 09:35:40;;;;;;;;;;;;;;;24.04;56.00;99307.00;4806789;29;19925;-71
2021/08/02 09:38:11;;;;;;;;;;;;;;;24.19;54.46;99308.69;4806766;29;20360;-70
2021/08/02 09:40:42;;;;;;;;;;;;;;;24.52;54.37;99310.00;4806852;29;19925;-71
2021/08/02 09:43:12;;;;;;;;;;;;;;;24.78;54.17;99305.78;4806853;29;20008;-71
2021/08/02 09:46:01;;;;;;;;;;;;;;;24.98;52.78;99313.13;4806859;29;20023;-70
2021/08/02 09:48:37;;;;;;;;;;;;;;;25.19;52.82;99301.28;4806819;29;19982;-70
2021/08/02 09:51:08;;;;;;;;;;;;;;;25.28;52.34;99300.69;4806779;29;19974;-71
2021/08/02 09:53:39;;;;;;;;;;;;;;;25.47;50.96;99304.69;4806733;29;19925;-71
2021/08/02 09:56:09;;;;;;;;;;;;;;;25.71;51.64;99303.88;4807040;29;20341;-71
2021/08/02 09:58:39;;;;;;;;;;;;;;;25.91;51.41;99307.72;4807229;29;19925;-72
2021/08/02 10:01:09;;;;;;;;;;;;;;;26.14;51.19;99306.97;4806987;29;19931;-71
2021/08/02 10:03:39;;;;;;;;;;;;;;;25.90;51.72;99306.03;4806414;29;19975;-71
2021/08/02 10:06:10;;;;;;;;;;;;;;;25.37;52.15;99308.81;4806691;29;20020;-71
2021/08/02 10:08:41;;;;;;;;;;;;;;;25.01;53.17;99317.31;4806667;29;20349;-71
2021/08/02 10:11:10;;;;;;;;;;;;;;;25.27;53.01;99317.28;4790332;29;20021;-72
2021/08/02 10:13:42;;;;;;;;;;;;;;;25.13;53.10;99319.13;4806613;29;20020;-71
2021/08/02 10:16:12;;;;;;;;;;;;;;;24.79;52.72;99332.69;4806474;29;20273;-71
2021/08/02 10:18:42;;;;;;;;;;;;;;;24.94;53.71;99326.50;4806622;29;19960;-72
2021/08/02 10:21:12;;;;;;;;;;;;;;;25.02;53.14;99325.06;4806507;29;20269;-71
2021/08/02 10:23:42;;;;;;;;;;;;;;;24.97;52.96;99316.69;4806426;29;19925;-70
2021/08/02 10:26:20;;;;;;;;;;;;;;;25.39;52.50;99320.84;4806791;29;19925;-72
2021/08/02 10:28:52;;;;;;;;;;;;;;;25.84;51.27;99319.56;4806433;29;19925;-69
2021/08/02 10:31:21;;;;;;;;;;;;;;;26.10;49.59;99315.97;4806468;29;19982;-70
2021/08/02 10:34:12;;;;;;;;;;;;;;;26.15;48.47;99313.91;4806397;29;19925;-70
2021/08/02 10:36:41;;;;;;;;;;;;;;;25.75;48.82;99309.69;4806251;29;20402;-71
2021/08/02 10:39:21;;;;;;;;;;;;;;;25.56;48.67;99315.34;4806801;29;19954;-70
2021/08/02 10:41:50;;;;;;;;;;;;;;;25.36;49.70;99323.69;4809464;29;20011;-70
2021/08/02 10:44:20;;;;;;;;;;;;;;;25.10;50.38;99333.22;4809620;29;19925;-71
2021/08/02 10:47:00;;;;;;;;;;;;;;;25.15;50.26;99331.16;4810202;29;19932;-71
2021/08/02 10:49:29;;;;;;;;;;;;;;;25.66;50.59;99326.03;4809787;29;19925;-71
2021/08/02 10:51:57;;;;;;;;;;;;;;;26.16;49.88;99326.03;4809471;29;19932;-70
2021/08/02 10:54:37;;;;;;;;;;;;;;;26.35;48.34;99326.41;4809420;29;20016;-70
2021/08/02 10:57:13;;;;;;;;;;;;;;;26.49;47.98;99331.47;4809346;29;20341;-70
2021/08/02 10:59:42;;;;;;;;;;;;;;;26.85;48.66;99321.97;4809393;29;19925;-71
2021/08/02 11:02:11;;;;;;;;;;;;;;;26.75;48.01;99328.78;4809884;29;19925;-71
2021/08/02 11:04:42;;;;;;;;;;;;;;;26.54;47.20;99311.03;4809073;29;19933;-71
2021/08/02 11:07:15;;;;;;;;;;;;;;;26.69;47.45;99308.25;4809349;29;20000;-71
2021/08/02 11:09:46;;;;;;;;;;;;;;;26.83;47.38;99310.75;4809513;29;19962;-71
2021/08/02 11:12:15;;;;;;;;;;;;;;;26.96;46.66;99311.53;4809224;29;20023;-71
2021/08/02 11:14:47;;;;;;;;;;;;;;;26.99;46.15;99317.38;4809028;29;20020;-71
2021/08/02 11:17:17;;;;;;;;;;;;;;;27.17;46.97;99309.94;4809074;29;19925;-72
2021/08/02 11:20:05;;;;;;;;;;;;;;;27.28;45.93;99312.59;4809123;29;19925;-72
2021/08/02 11:22:37;;;;;;;;;;;;;;;27.38;46.42;99312.78;4809847;29;20340;-71
2021/08/02 11:25:08;;;;;;;;;;;;;;;27.45;45.89;99309.56;4809025;29;19925;-71
2021/08/02 11:27:37;;;;;;;;;;;;;;;27.29;45.37;99309.00;4809264;29;19933;-71
2021/08/02 11:30:07;;;;;;;;;;;;;;;27.24;45.96;99305.91;4808860;29;19932;-71
2021/08/02 11:32:36;;;;;;;;;;;;;;;27.11;44.19;99307.78;4792671;29;19925;-70
2021/08/02 11:35:06;;;;;;;;;;;;;;;27.13;44.44;99303.25;4808787;29;19925;-71
2021/08/02 11:37:34;;;;;;;;;;;;;;;27.30;45.07;99308.06;4808635;29;20448;-71
2021/08/02 11:40:05;;;;;;;;;;;;;;;27.25;44.85;99312.81;4808597;29;20372;-69
2021/08/02 11:42:37;;;;;;;;;;;;;;;27.18;44.92;99306.38;4808949;29;20364;-71
2021/08/02 11:45:07;;;;;;;;;;;;;;;26.70;44.76;99316.03;4808595;29;20012;-71
2021/08/02 11:47:37;;;;;;;;;;;;;;;26.65;44.63;99312.06;4808616;29;20436;-70
2021/08/02 11:50:07;;;;;;;;;;;;;;;26.76;45.18;99314.75;4808489;29;20000;-70
2021/08/02 11:52:35;;;;;;;;;;;;;;;26.31;45.67;99308.41;4807704;29;20447;-70
2021/08/02 11:55:05;;;;;;;;;;;;;;;26.00;46.73;99317.53;4808390;29;20434;-70
2021/08/02 11:57:36;;;;;;;;;;;;;;;25.86;47.27;99318.50;4808320;29;19925;-70
2021/08/02 12:00:07;;;;;;;;;;;;;;;25.86;47.87;99312.44;4808756;29;19925;-71
2021/08/02 12:02:44;;;;;;;;;;;;;;;25.94;48.85;99317.94;4808469;29;19931;-70
2021/08/02 12:05:21;;;;;;;;;;;;;;;25.99;48.83;99318.47;4808643;29;19953;-72
2021/08/02 12:08:08;;;;;;;;;;;;;;;26.00;47.99;99319.31;4808297;29;19954;-71
2021/08/02 12:10:37;;;;;;;;;;;;;;;26.06;47.57;99314.50;4808098;29;20298;-69
2021/08/02 12:13:10;;;;;;;;;;;;;;;26.15;46.41;99303.44;4808612;29;20287;-70
2021/08/02 12:15:50;;;;;;;;;;;;;;;26.35;47.74;99315.94;4808268;29;19925;-70
2021/08/02 12:18:22;;;;;;;;;;;;;;;26.54;46.64;99312.81;4807883;29;19964;-71
2021/08/02 12:20:51;;;;;;;;;;;;;;;26.97;47.15;99318.44;4808318;29;19931;-71
2021/08/02 12:23:24;;;;;;;;;;;;;;;26.99;46.23;99314.78;4807866;29;19932;-70
2021/08/02 12:25:53;;;;;;;;;;;;;;;26.96;45.40;99311.53;4808273;29;19974;-71
2021/08/02 12:28:23;;;;;;;;;;;;;;;26.90;45.78;99310.19;4807893;29;19932;-69
2021/08/02 12:31:14;;;;;;;;;;;;;;;26.39;45.51;99306.09;4807791;29;19925;-70
2021/08/02 12:33:45;;;;;;;;;;;;;;;26.01;46.88;99310.53;4808065;29;19925;-72
2021/08/02 12:36:15;;;;;;;;;;;;;;;25.79;47.69;99312.03;4807743;29;19986;-71
2021/08/02 12:38:45;;;;;;;;;;;;;;;25.84;48.87;99319.56;4807834;29;19948;-71
2021/08/02 12:41:14;;;;;;;;;;;;;;;25.94;50.06;99320.56;4807700;29;20373;-71
2021/08/02 12:43:44;;;;;;;;;;;;;;;25.79;49.39;99314.66;4807619;29;20023;-70
2021/08/02 12:46:13;;;;;;;;;;;;;;;25.49;49.17;99323.72;4807878;29;20324;-71
2021/08/02 12:48:58;;;;;;;;;;;;;;;25.57;50.07;99321.44;4807515;29;19925;-70
2021/08/02 12:51:27;;;;;;;;;;;;;;;26.05;49.36;99323.28;4807844;29;19932;-71
2021/08/02 12:53:55;;;;;;;;;;;;;;;26.62;48.39;99323.59;4807295;29;19925;-71
2021/08/02 12:56:24;;;;;;;;;;;;;;;26.88;47.00;99319.09;4807409;29;19936;-71
2021/08/02 12:58:54;;;;;;;;;;;;;;;26.42;46.66;99314.53;4807542;29;19925;-71
2021/08/02 13:01:23;;;;;;;;;;;;;;;26.46;47.60;99302.94;4807283;29;19932;-71
2021/08/02 13:03:53;;;;;;;;;;;;;;;26.80;46.75;99317.06;4806973;29;19925;-72
2021/08/02 13:06:23;;;;;;;;;;;;;;;26.74;46.43;99311.38;4807183;29;19931;-72